createdAt,value
2018-08-12T00:00:35.697Z,1013.03
2018-08-12T00:01:35.599Z,1013.01
2018-08-12T00:02:35.093Z,1013.00
2018-08-12T00:03:35.215Z,1012.98
2018-08-12T00:04:35.484Z,1013.01
2018-08-12T00:05:35.190Z,1013.05
2018-08-12T00:06:35.118Z,1013.03
2018-08-12T00:07:35.009Z,1013.00
2018-08-12T00:08:35.287Z,1012.98
2018-08-12T00:09:34.973Z,1013.00
2018-08-12T00:10:35.101Z,1012.99
2018-08-12T00:11:34.934Z,1012.99
2018-08-12T00:12:36.225Z,1013.01
2018-08-12T00:13:34.903Z,1012.98
2018-08-12T00:15:35.405Z,1012.99
2018-08-12T00:16:35.031Z,1012.95
2018-08-12T00:17:34.913Z,1012.97
2018-08-12T00:18:34.978Z,1012.93
2018-08-12T00:20:34.796Z,1012.92
2018-08-12T00:22:34.803Z,1012.90
2018-08-12T00:23:35.578Z,1012.91
2018-08-12T00:24:34.781Z,1012.90
2018-08-12T00:25:34.782Z,1012.94
2018-08-12T00:26:34.892Z,1012.88
2018-08-12T00:27:34.725Z,1012.89
2018-08-12T00:28:34.885Z,1012.87
2018-08-12T00:29:35.101Z,1012.89
2018-08-12T00:30:34.845Z,1012.85
2018-08-12T00:31:34.699Z,1012.82
2018-08-12T00:32:34.651Z,1012.83
2018-08-12T00:33:34.646Z,1012.83
2018-08-12T00:34:34.616Z,1012.84
2018-08-12T00:35:34.896Z,1012.88
2018-08-12T00:36:34.682Z,1012.83
2018-08-12T00:37:34.504Z,1012.85
2018-08-12T00:38:34.487Z,1012.88
2018-08-12T00:39:34.472Z,1012.87
2018-08-12T00:40:34.459Z,1012.80
2018-08-12T00:41:34.734Z,1012.79
2018-08-12T00:42:34.662Z,1012.79
2018-08-12T00:43:34.404Z,1012.80
2018-08-12T00:44:34.509Z,1012.76
2018-08-12T00:45:34.372Z,1012.79
2018-08-12T00:46:35.707Z,1012.78
2018-08-12T00:47:34.764Z,1012.76
2018-08-12T00:48:34.397Z,1012.76
2018-08-12T00:49:34.302Z,1012.73
2018-08-12T00:50:34.290Z,1012.70
2018-08-12T00:51:34.315Z,1012.68
2018-08-12T00:52:35.609Z,1012.68
2018-08-12T00:53:34.539Z,1012.69
2018-08-12T00:54:34.219Z,1012.65
2018-08-12T00:55:34.297Z,1012.66
2018-08-12T00:56:34.183Z,1012.68
2018-08-12T00:57:34.555Z,1012.67
2018-08-12T00:58:34.584Z,1012.69
2018-08-12T00:59:34.506Z,1012.74
2018-08-12T01:00:34.282Z,1012.72
2018-08-12T01:01:34.487Z,1012.74
2018-08-12T01:02:34.398Z,1012.71
2018-08-12T01:03:34.084Z,1012.71
2018-08-12T01:04:35.308Z,1012.69
2018-08-12T01:05:34.643Z,1012.69
2018-08-12T01:06:34.518Z,1012.70
2018-08-12T01:07:34.206Z,1012.66
2018-08-12T01:09:33.977Z,1012.65
2018-08-12T01:10:34.109Z,1012.60
2018-08-12T01:12:34.231Z,1012.61
2018-08-12T01:13:34.226Z,1012.64
2018-08-12T01:14:33.938Z,1012.66
2018-08-12T01:15:33.936Z,1012.65
2018-08-12T01:16:34.019Z,1012.68
2018-08-12T01:17:33.836Z,1012.65
2018-08-12T01:18:33.991Z,1012.70
2018-08-12T01:19:33.800Z,1012.68
2018-08-12T01:20:34.426Z,1012.67
2018-08-12T01:21:33.764Z,1012.66
2018-08-12T01:22:34.024Z,1012.72
2018-08-12T01:23:33.918Z,1012.72
2018-08-12T01:24:33.764Z,1012.73
2018-08-12T01:25:33.973Z,1012.70
2018-08-12T01:26:33.681Z,1012.71
2018-08-12T01:27:34.317Z,1012.72
2018-08-12T01:28:33.700Z,1012.73
2018-08-12T01:29:33.690Z,1012.76
2018-08-12T01:30:33.822Z,1012.74
2018-08-12T01:31:33.705Z,1012.76
2018-08-12T01:32:33.691Z,1012.73
2018-08-12T01:33:33.571Z,1012.73
2018-08-12T01:34:34.053Z,1012.69
2018-08-12T01:35:33.535Z,1012.70
2018-08-12T01:36:33.871Z,1012.68
2018-08-12T01:38:33.541Z,1012.70
2018-08-12T01:39:33.464Z,1012.74
2018-08-12T01:40:33.608Z,1012.72
2018-08-12T01:41:33.811Z,1012.65
2018-08-12T01:42:33.732Z,1012.66
2018-08-12T01:43:33.721Z,1012.64
2018-08-12T01:44:33.381Z,1012.66
2018-08-12T01:46:33.416Z,1012.57
2018-08-12T01:49:33.499Z,1012.60
2018-08-12T01:51:33.278Z,1012.57
2018-08-12T01:52:33.560Z,1012.57
2018-08-12T01:53:33.250Z,1012.58
2018-08-12T01:54:33.522Z,1012.48
2018-08-12T01:55:33.254Z,1012.52
2018-08-12T01:58:37.847Z,1012.54
2018-08-12T02:00:33.421Z,1012.55
2018-08-12T02:02:33.089Z,1012.51
2018-08-12T02:03:33.071Z,1012.50
2018-08-12T02:04:33.353Z,1012.48
2018-08-12T02:05:33.037Z,1012.47
2018-08-12T02:06:33.421Z,1012.47
2018-08-12T02:07:33.452Z,1012.49
2018-08-12T02:09:33.067Z,1012.47
2018-08-12T02:10:33.788Z,1012.47
2018-08-12T02:11:32.927Z,1012.47
2018-08-12T02:12:33.214Z,1012.45
2018-08-12T02:13:33.233Z,1012.48
2018-08-12T02:14:32.873Z,1012.47
2018-08-12T02:15:32.862Z,1012.49
2018-08-12T02:16:32.992Z,1012.48
2018-08-12T02:17:32.822Z,1012.46
2018-08-12T02:18:33.109Z,1012.47
2018-08-12T02:19:32.960Z,1012.47
2018-08-12T02:20:32.777Z,1012.43
2018-08-12T02:21:32.753Z,1012.44
2018-08-12T02:22:32.901Z,1012.47
2018-08-12T02:23:32.721Z,1012.46
2018-08-12T02:25:32.716Z,1012.44
2018-08-12T02:26:32.876Z,1012.41
2018-08-12T02:27:32.724Z,1012.42
2018-08-12T02:28:32.838Z,1012.39
2018-08-12T02:29:32.619Z,1012.36
2018-08-12T02:30:32.899Z,1012.35
2018-08-12T02:33:33.034Z,1012.33
2018-08-12T02:35:33.897Z,1012.26
2018-08-12T02:36:32.800Z,1012.26
2018-08-12T02:37:32.772Z,1012.27
2018-08-12T02:38:32.475Z,1012.30
2018-08-12T02:39:32.447Z,1012.29
2018-08-12T02:40:32.433Z,1012.30
2018-08-12T02:41:32.569Z,1012.28
2018-08-12T02:42:32.792Z,1012.26
2018-08-12T02:43:32.864Z,1012.30
2018-08-12T02:44:32.460Z,1012.27
2018-08-12T02:47:32.560Z,1012.28
2018-08-12T02:48:32.302Z,1012.25
2018-08-12T02:50:32.672Z,1012.27
2018-08-12T02:51:32.525Z,1012.25
2018-08-12T02:52:32.239Z,1012.21
2018-08-12T02:53:35.391Z,1012.22
2018-08-12T02:55:32.475Z,1012.21
2018-08-12T02:56:32.163Z,1012.18
2018-08-12T02:58:32.709Z,1012.17
2018-08-12T02:59:32.219Z,1012.15
2018-08-12T03:00:32.093Z,1012.13
2018-08-12T03:01:32.072Z,1012.15
2018-08-12T03:02:32.053Z,1012.14
2018-08-12T03:03:32.340Z,1012.11
2018-08-12T03:04:32.020Z,1012.10
2018-08-12T03:05:32.210Z,1012.09
2018-08-12T03:06:31.989Z,1012.13
2018-08-12T03:07:31.981Z,1012.07
2018-08-12T03:08:31.953Z,1012.09
2018-08-12T03:09:31.991Z,1012.04
2018-08-12T03:10:32.269Z,1012.04
2018-08-12T03:11:32.050Z,1012.05
2018-08-12T03:12:31.935Z,1012.04
2018-08-12T03:13:31.868Z,1012.02
2018-08-12T03:15:31.834Z,1012.02
2018-08-12T03:16:32.081Z,1011.99
2018-08-12T03:17:32.201Z,1012.02
2018-08-12T03:18:31.791Z,1012.01
2018-08-12T03:19:31.762Z,1011.98
2018-08-12T03:20:31.771Z,1012.02
2018-08-12T03:21:31.729Z,1011.97
2018-08-12T03:23:31.913Z,1011.93
2018-08-12T03:25:31.970Z,1011.94
2018-08-12T03:26:31.658Z,1011.93
2018-08-12T03:27:31.627Z,1011.89
2018-08-12T03:28:31.608Z,1011.90
2018-08-12T03:29:31.743Z,1011.91
2018-08-12T03:30:31.583Z,1011.87
2018-08-12T03:31:31.860Z,1011.88
2018-08-12T03:32:31.850Z,1011.85
2018-08-12T03:33:31.705Z,1011.86
2018-08-12T03:34:31.508Z,1011.89
2018-08-12T03:35:31.841Z,1011.87
2018-08-12T03:36:31.475Z,1011.88
2018-08-12T03:38:31.790Z,1011.92
2018-08-12T03:39:31.425Z,1011.91
2018-08-12T03:40:31.409Z,1011.94
2018-08-12T03:41:31.585Z,1011.93
2018-08-12T03:42:31.481Z,1011.93
2018-08-12T03:43:31.349Z,1011.86
2018-08-12T03:44:31.636Z,1011.91
2018-08-12T03:45:31.324Z,1011.90
2018-08-12T03:46:31.301Z,1011.95
2018-08-12T03:48:31.555Z,1011.91
2018-08-12T03:49:31.259Z,1011.89
2018-08-12T03:50:32.073Z,1011.98
2018-08-12T03:51:31.303Z,1011.98
2018-08-12T03:52:31.260Z,1011.95
2018-08-12T03:53:31.190Z,1011.94
2018-08-12T03:54:31.220Z,1011.98
2018-08-12T03:55:31.157Z,1012.01
2018-08-12T03:56:31.674Z,1011.97
2018-08-12T03:57:31.148Z,1011.94
2018-08-12T03:58:31.091Z,1011.94
2018-08-12T03:59:31.087Z,1011.96
2018-08-12T04:00:31.114Z,1011.96
2018-08-12T04:01:31.037Z,1011.95
2018-08-12T04:02:31.122Z,1011.90
2018-08-12T04:03:31.303Z,1011.94
2018-08-12T04:04:31.287Z,1011.94
2018-08-12T04:05:30.985Z,1011.99
2018-08-12T04:07:31.054Z,1011.99
2018-08-12T04:08:30.979Z,1011.98
2018-08-12T04:09:31.112Z,1011.96
2018-08-12T04:10:31.460Z,1011.97
2018-08-12T04:12:30.848Z,1011.96
2018-08-12T04:13:30.884Z,1011.93
2018-08-12T04:16:30.888Z,1011.97
2018-08-12T04:17:31.110Z,1011.90
2018-08-12T04:18:30.868Z,1011.89
2018-08-12T04:19:30.914Z,1011.90
2018-08-12T04:20:30.718Z,1011.92
2018-08-12T04:21:30.696Z,1011.93
2018-08-12T04:22:30.674Z,1011.88
2018-08-12T04:23:30.718Z,1011.88
2018-08-12T04:24:30.942Z,1011.93
2018-08-12T04:25:31.024Z,1011.91
2018-08-12T04:28:30.588Z,1011.90
2018-08-12T04:30:30.616Z,1011.87
2018-08-12T04:31:30.979Z,1011.88
2018-08-12T04:32:30.505Z,1011.90
2018-08-12T04:33:30.483Z,1011.86
2018-08-12T04:34:30.532Z,1011.87
2018-08-12T04:35:30.773Z,1011.83
2018-08-12T04:37:30.474Z,1011.85
2018-08-12T04:38:30.697Z,1011.82
2018-08-12T04:40:30.472Z,1011.83
2018-08-12T04:41:30.347Z,1011.86
2018-08-12T04:42:30.333Z,1011.81
2018-08-12T04:43:30.467Z,1011.86
2018-08-12T04:44:30.311Z,1011.85
2018-08-12T04:45:30.684Z,1011.87
2018-08-12T04:46:30.275Z,1011.86
2018-08-12T04:47:30.660Z,1011.86
2018-08-12T04:48:30.331Z,1011.81
2018-08-12T04:49:30.984Z,1011.78
2018-08-12T04:50:30.200Z,1011.79
2018-08-12T04:51:30.935Z,1011.81
2018-08-12T04:52:31.658Z,1011.78
2018-08-12T04:53:30.212Z,1011.79
2018-08-12T04:54:30.197Z,1011.75
2018-08-12T04:55:30.431Z,1011.72
2018-08-12T04:56:30.104Z,1011.76
2018-08-12T04:57:30.383Z,1011.75
2018-08-12T04:58:30.727Z,1011.70
2018-08-12T04:59:30.057Z,1011.68
2018-08-12T05:00:30.213Z,1011.63
2018-08-12T05:01:30.056Z,1011.62
2018-08-12T05:03:29.973Z,1011.61
2018-08-12T05:04:30.355Z,1011.61
2018-08-12T05:05:29.942Z,1011.67
2018-08-12T05:06:29.924Z,1011.64
2018-08-12T05:08:29.935Z,1011.65
2018-08-12T05:09:29.875Z,1011.61
2018-08-12T05:10:30.153Z,1011.61
2018-08-12T05:12:29.828Z,1011.61
2018-08-12T05:13:29.808Z,1011.61
2018-08-12T05:14:29.944Z,1011.59
2018-08-12T05:15:29.782Z,1011.61
2018-08-12T05:16:30.056Z,1011.59
2018-08-12T05:17:30.036Z,1011.57
2018-08-12T05:18:29.726Z,1011.58
2018-08-12T05:19:29.743Z,1011.54
2018-08-12T05:21:29.719Z,1011.51
2018-08-12T05:23:29.637Z,1011.54
2018-08-12T05:24:29.965Z,1011.53
2018-08-12T05:25:29.610Z,1011.53
2018-08-12T05:26:29.591Z,1011.55
2018-08-12T05:27:29.668Z,1011.54
2018-08-12T05:28:29.859Z,1011.56
2018-08-12T05:29:29.547Z,1011.57
2018-08-12T05:31:29.513Z,1011.57
2018-08-12T05:32:29.487Z,1011.61
2018-08-12T05:33:29.569Z,1011.58
2018-08-12T05:34:29.454Z,1011.58
2018-08-12T05:36:29.726Z,1011.53
2018-08-12T05:37:29.404Z,1011.56
2018-08-12T05:39:29.425Z,1011.50
2018-08-12T05:40:29.357Z,1011.55
2018-08-12T05:41:29.340Z,1011.51
2018-08-12T05:42:29.424Z,1011.52
2018-08-12T05:43:29.608Z,1011.47
2018-08-12T05:44:29.298Z,1011.45
2018-08-12T05:45:29.343Z,1011.47
2018-08-12T05:46:29.263Z,1011.46
2018-08-12T05:47:29.244Z,1011.45
2018-08-12T05:48:29.269Z,1011.41
2018-08-12T05:49:29.215Z,1011.40
2018-08-12T05:50:29.248Z,1011.38
2018-08-12T05:51:29.377Z,1011.40
2018-08-12T05:52:29.174Z,1011.41
2018-08-12T05:58:29.081Z,1011.39
2018-08-12T05:59:29.361Z,1011.33
2018-08-12T06:00:29.214Z,1011.35
2018-08-12T06:01:29.029Z,1011.33
2018-08-12T06:02:29.021Z,1011.32
2018-08-12T06:04:29.288Z,1011.29
2018-08-12T06:05:28.980Z,1011.29
2018-08-12T06:06:29.060Z,1011.30
2018-08-12T06:08:28.939Z,1011.30
2018-08-12T06:09:29.016Z,1011.34
2018-08-12T06:10:28.900Z,1011.29
2018-08-12T06:11:29.177Z,1011.29
2018-08-12T06:13:28.929Z,1011.24
2018-08-12T06:14:28.838Z,1011.25
2018-08-12T06:15:28.885Z,1011.25
2018-08-12T06:16:28.818Z,1011.22
2018-08-12T06:17:28.837Z,1011.25
2018-08-12T06:18:29.073Z,1011.20
2018-08-12T06:19:28.763Z,1011.21
2018-08-12T06:20:28.742Z,1011.21
2018-08-12T06:21:28.880Z,1011.22
2018-08-12T06:22:29.476Z,1011.24
2018-08-12T06:23:28.798Z,1011.20
2018-08-12T06:24:29.675Z,1011.19
2018-08-12T06:27:28.814Z,1011.19
2018-08-12T06:29:28.615Z,1011.18
2018-08-12T06:30:29.063Z,1011.20
2018-08-12T06:31:29.211Z,1011.21
2018-08-12T06:32:28.574Z,1011.23
2018-08-12T06:33:28.724Z,1011.22
2018-08-12T06:34:28.755Z,1011.23
2018-08-12T06:35:28.689Z,1011.22
2018-08-12T06:36:28.822Z,1011.26
2018-08-12T06:37:28.501Z,1011.24
2018-08-12T06:38:28.484Z,1011.21
2018-08-12T06:39:28.524Z,1011.21
2018-08-12T06:40:28.487Z,1011.16
2018-08-12T06:41:28.448Z,1011.19
2018-08-12T06:42:28.726Z,1011.20
2018-08-12T06:43:28.423Z,1011.17
2018-08-12T06:44:28.451Z,1011.14
2018-08-12T06:47:28.473Z,1011.20
2018-08-12T06:48:28.345Z,1011.18
2018-08-12T06:49:28.627Z,1011.15
2018-08-12T06:50:28.311Z,1011.18
2018-08-12T06:52:28.332Z,1011.18
2018-08-12T06:53:28.422Z,1011.19
2018-08-12T06:54:28.261Z,1011.18
2018-08-12T06:55:28.625Z,1011.17
2018-08-12T06:56:28.233Z,1011.14
2018-08-12T06:57:28.417Z,1011.14
2018-08-12T06:58:28.202Z,1011.13
2018-08-12T07:00:28.329Z,1011.11
2018-08-12T07:01:28.159Z,1011.13
2018-08-12T07:02:28.449Z,1011.13
2018-08-12T07:03:28.132Z,1011.13
2018-08-12T07:04:28.121Z,1011.11
2018-08-12T07:05:28.109Z,1011.11
2018-08-12T07:07:28.136Z,1011.10
2018-08-12T07:08:28.097Z,1011.10
2018-08-12T07:09:28.354Z,1011.13
2018-08-12T07:10:28.039Z,1011.08
2018-08-12T07:11:28.223Z,1011.14
2018-08-12T07:12:28.013Z,1011.11
2018-08-12T07:13:28.049Z,1011.08
2018-08-12T07:15:27.973Z,1011.11
2018-08-12T07:16:28.293Z,1011.10
2018-08-12T07:18:27.937Z,1011.09
2018-08-12T07:20:28.062Z,1011.12
2018-08-12T07:21:27.894Z,1011.10
2018-08-12T07:22:27.897Z,1011.06
2018-08-12T07:23:28.171Z,1011.09
2018-08-12T07:24:27.850Z,1011.09
2018-08-12T07:25:28.009Z,1011.07
2018-08-12T07:26:28.088Z,1011.07
2018-08-12T07:27:27.873Z,1011.07
2018-08-12T07:28:27.870Z,1011.10
2018-08-12T07:29:27.899Z,1011.11
2018-08-12T07:30:28.094Z,1011.09
2018-08-12T07:31:27.768Z,1011.07
2018-08-12T07:32:28.002Z,1011.08
2018-08-12T07:33:28.097Z,1011.00
2018-08-12T07:34:27.734Z,1011.07
2018-08-12T07:37:27.990Z,1011.09
2018-08-12T07:38:27.837Z,1011.07
2018-08-12T07:39:27.764Z,1011.04
2018-08-12T07:40:27.664Z,1011.07
2018-08-12T07:41:27.655Z,1011.02
2018-08-12T07:42:27.736Z,1011.08
2018-08-12T07:43:27.632Z,1011.07
2018-08-12T07:44:28.412Z,1011.06
2018-08-12T07:45:27.701Z,1011.07
2018-08-12T07:48:27.621Z,1011.01
2018-08-12T07:49:27.643Z,1011.00
2018-08-12T07:50:27.690Z,1011.06
2018-08-12T07:51:27.827Z,1011.01
2018-08-12T07:52:27.518Z,1011.00
2018-08-12T07:53:27.520Z,1011.02
2018-08-12T07:54:27.850Z,1010.95
2018-08-12T07:55:27.564Z,1011.00
2018-08-12T07:56:27.535Z,1011.00
2018-08-12T07:58:27.755Z,1011.02
2018-08-12T07:59:27.426Z,1011.00
2018-08-12T08:00:27.432Z,1011.06
2018-08-12T08:01:27.409Z,1010.97
2018-08-12T08:02:27.544Z,1011.10
2018-08-12T08:03:27.766Z,1011.04
2018-08-12T08:04:27.679Z,1011.00
2018-08-12T08:05:27.379Z,1010.96
2018-08-12T08:07:27.343Z,1011.02
2018-08-12T08:08:27.594Z,1011.02
2018-08-12T08:09:27.343Z,1010.99
2018-08-12T08:10:27.730Z,1010.95
2018-08-12T08:11:27.430Z,1010.92
2018-08-12T08:12:27.302Z,1010.95
2018-08-12T08:13:27.430Z,1010.89
2018-08-12T08:14:27.498Z,1010.89
2018-08-12T08:15:27.313Z,1010.84
2018-08-12T08:16:27.553Z,1010.82
2018-08-12T08:18:27.282Z,1010.90
2018-08-12T08:20:27.258Z,1010.88
2018-08-12T08:22:27.479Z,1010.92
2018-08-12T08:23:27.565Z,1010.88
2018-08-12T08:26:27.551Z,1010.91
2018-08-12T08:27:28.092Z,1010.95
2018-08-12T08:28:27.296Z,1010.96
2018-08-12T08:29:27.156Z,1010.94
2018-08-12T08:30:27.160Z,1011.07
2018-08-12T08:31:27.135Z,1010.96
2018-08-12T08:32:27.628Z,1010.87
2018-08-12T08:33:27.067Z,1010.86
2018-08-12T08:34:27.395Z,1010.97
2018-08-12T08:35:27.212Z,1010.98
2018-08-12T08:36:27.049Z,1011.04
2018-08-12T08:37:27.216Z,1010.97
2018-08-12T08:38:27.123Z,1011.02
2018-08-12T08:39:27.026Z,1010.99
2018-08-12T08:40:27.006Z,1010.99
2018-08-12T08:41:27.538Z,1011.01
2018-08-12T08:42:26.991Z,1011.03
2018-08-12T08:44:27.010Z,1011.05
2018-08-12T08:45:26.998Z,1011.09
2018-08-12T08:46:26.953Z,1011.03
2018-08-12T08:47:26.931Z,1011.00
2018-08-12T08:48:27.216Z,1011.04
2018-08-12T08:49:26.912Z,1010.96
2018-08-12T08:50:26.981Z,1010.99
2018-08-12T08:51:26.888Z,1011.00
2018-08-12T08:52:26.882Z,1010.93
2018-08-12T08:53:26.913Z,1010.94
2018-08-12T08:54:26.860Z,1010.95
2018-08-12T08:55:27.150Z,1010.96
2018-08-12T08:56:26.994Z,1010.93
2018-08-12T08:58:26.910Z,1010.90
2018-08-12T08:59:26.862Z,1010.93
2018-08-12T09:00:26.819Z,1011.00
2018-08-12T09:03:27.978Z,1011.11
2018-08-12T09:05:26.846Z,1010.98
2018-08-12T09:06:26.765Z,1011.03
2018-08-12T09:07:26.744Z,1011.04
2018-08-12T09:08:27.104Z,1010.97
2018-08-12T09:09:26.905Z,1011.04
2018-08-12T09:10:27.018Z,1011.07
2018-08-12T09:11:26.698Z,1011.12
2018-08-12T09:12:26.687Z,1011.14
2018-08-12T09:13:26.803Z,1011.06
2018-08-12T09:14:26.700Z,1010.97
2018-08-12T09:15:27.048Z,1010.91
2018-08-12T09:16:26.790Z,1011.13
2018-08-12T09:17:26.995Z,1011.13
2018-08-12T09:18:26.658Z,1011.15
2018-08-12T09:19:26.677Z,1011.17
2018-08-12T09:20:26.722Z,1011.19
2018-08-12T09:21:26.661Z,1011.19
2018-08-12T09:22:26.749Z,1011.13
2018-08-12T09:23:26.944Z,1011.06
2018-08-12T09:25:26.737Z,1010.82
2018-08-12T09:26:26.724Z,1011.25
2018-08-12T09:27:26.611Z,1011.12
2018-08-12T09:28:27.091Z,1010.95
2018-08-12T09:29:26.856Z,1011.07
2018-08-12T09:30:26.675Z,1011.07
2018-08-12T09:31:26.837Z,1010.95
2018-08-12T09:32:26.809Z,1011.00
2018-08-12T09:33:26.560Z,1011.12
2018-08-12T09:34:26.708Z,1010.82
2018-08-12T09:35:26.880Z,1010.90
2018-08-12T09:36:26.477Z,1011.35
2018-08-12T09:37:26.481Z,1011.16
2018-08-12T09:39:26.608Z,1011.66
2018-08-12T09:40:26.441Z,1011.26
2018-08-12T09:42:26.764Z,1011.78
2018-08-12T09:43:26.515Z,1011.26
2018-08-12T09:44:26.549Z,1011.17
2018-08-12T09:46:26.789Z,1011.24
2018-08-12T09:47:29.402Z,1011.29
2018-08-12T09:48:26.952Z,1011.28
2018-08-12T09:50:26.644Z,1010.75
2018-08-12T09:51:26.595Z,1011.06
2018-08-12T09:52:26.409Z,1011.09
2018-08-12T09:53:26.492Z,1011.06
2018-08-12T09:55:26.628Z,1011.01
2018-08-12T09:56:26.324Z,1010.89
2018-08-12T09:57:26.483Z,1010.97
2018-08-12T09:58:26.702Z,1010.98
2018-08-12T09:59:26.367Z,1011.02
2018-08-12T10:00:26.469Z,1011.02
2018-08-12T10:02:26.745Z,1011.28
2018-08-12T10:03:26.392Z,1010.96
2018-08-12T10:04:26.622Z,1010.99
2018-08-12T10:05:26.263Z,1011.29
2018-08-12T10:06:26.247Z,1011.02
2018-08-12T10:07:26.251Z,1011.32
2018-08-12T10:08:26.269Z,1011.14
2018-08-12T10:10:26.227Z,1011.18
2018-08-12T10:11:26.214Z,1011.24
2018-08-12T10:13:26.233Z,1011.15
2018-08-12T10:15:26.583Z,1011.09
2018-08-12T10:16:26.152Z,1011.16
2018-08-12T10:18:26.160Z,1011.17
2018-08-12T10:19:26.133Z,1011.10
2018-08-12T10:20:26.125Z,1011.02
2018-08-12T10:21:26.224Z,1010.81
2018-08-12T10:23:26.603Z,1011.07
2018-08-12T10:25:26.114Z,1011.03
2018-08-12T10:26:26.082Z,1010.60
2018-08-12T10:31:26.056Z,1010.30
2018-08-12T10:33:26.124Z,1010.32
2018-08-12T10:34:26.081Z,1010.35
2018-08-12T10:35:26.358Z,1010.32
2018-08-12T10:36:26.022Z,1010.29
2018-08-12T10:37:26.431Z,1010.30
2018-08-12T10:38:26.178Z,1010.30
2018-08-12T10:39:26.198Z,1010.32
2018-08-12T10:41:26.206Z,1010.27
2018-08-12T10:42:26.093Z,1010.22
2018-08-12T10:43:25.981Z,1010.21
2018-08-12T10:44:26.289Z,1010.40
2018-08-12T10:45:26.511Z,1010.16
2018-08-12T10:46:25.950Z,1010.11
2018-08-12T10:47:25.943Z,1010.08
2018-08-12T10:48:25.941Z,1010.03
2018-08-12T10:49:25.937Z,1010.07
2018-08-12T10:50:26.138Z,1010.02
2018-08-12T10:51:26.373Z,1010.02
2018-08-12T10:52:25.914Z,1010.06
2018-08-12T10:53:25.923Z,1010.05
2018-08-12T10:54:26.009Z,1010.06
2018-08-12T10:55:25.925Z,1009.96
2018-08-12T10:56:25.903Z,1010.01
2018-08-12T10:57:25.969Z,1010.02
2018-08-12T10:58:26.199Z,1010.00
2018-08-12T10:59:25.984Z,1010.03
2018-08-12T11:00:25.866Z,1009.88
2018-08-12T11:02:25.858Z,1010.00
2018-08-12T11:03:26.051Z,1009.70
2018-08-12T11:05:26.147Z,1009.88
2018-08-12T11:06:25.842Z,1009.94
2018-08-12T11:07:25.859Z,1009.78
2018-08-12T11:09:25.872Z,1009.72
2018-08-12T11:10:25.811Z,1009.68
2018-08-12T11:11:26.106Z,1009.69
2018-08-12T11:13:25.795Z,1010.02
2018-08-12T11:14:25.790Z,1009.91
2018-08-12T11:15:25.896Z,1009.94
2018-08-12T11:16:25.788Z,1009.90
2018-08-12T11:17:26.124Z,1010.05
2018-08-12T11:19:25.775Z,1009.98
2018-08-12T11:20:25.835Z,1010.04
2018-08-12T11:21:25.903Z,1009.58
2018-08-12T11:22:25.755Z,1009.68
2018-08-12T11:23:26.255Z,1009.88
2018-08-12T11:24:26.388Z,1009.68
2018-08-12T11:25:26.026Z,1009.69
2018-08-12T11:27:25.783Z,1009.90
2018-08-12T11:28:25.774Z,1009.62
2018-08-12T11:29:59.287Z,1009.58
2018-08-12T11:31:25.711Z,1009.54
2018-08-12T11:32:25.762Z,1009.47
2018-08-12T11:33:25.779Z,1009.49
2018-08-12T11:34:25.709Z,1009.49
2018-08-12T11:35:32.283Z,1009.44
2018-08-12T11:37:25.741Z,1009.53
2018-08-12T11:43:25.670Z,1009.61
2018-08-12T11:44:25.804Z,1009.48
2018-08-12T11:46:25.649Z,1009.34
2018-08-12T11:48:26.088Z,1009.29
2018-08-12T11:49:25.631Z,1009.27
2018-08-12T11:50:26.076Z,1009.28
2018-08-12T11:51:25.669Z,1009.24
2018-08-12T11:52:29.328Z,1009.31
2018-08-12T11:53:25.707Z,1009.31
2018-08-12T11:54:25.629Z,1009.31
2018-08-12T11:55:25.905Z,1009.38
2018-08-12T11:56:25.655Z,1009.40
2018-08-12T11:58:25.586Z,1009.34
2018-08-12T12:00:25.574Z,1009.34
2018-08-12T12:01:25.572Z,1009.33
2018-08-12T12:02:26.019Z,1009.26
2018-08-12T12:03:25.675Z,1009.12
2018-08-12T12:05:25.657Z,1009.22
2018-08-12T12:07:25.550Z,1009.27
2018-08-12T12:08:25.547Z,1009.20
2018-08-12T12:09:26.494Z,1009.24
2018-08-12T12:10:25.541Z,1009.07
2018-08-12T12:11:25.533Z,1008.94
2018-08-12T12:13:25.532Z,1008.92
2018-08-12T12:14:25.527Z,1008.87
2018-08-12T12:15:25.572Z,1008.88
2018-08-12T12:16:25.546Z,1008.92
2018-08-12T12:17:25.519Z,1008.97
2018-08-12T12:18:25.518Z,1008.95
2018-08-12T12:19:25.546Z,1008.94
2018-08-12T12:20:25.520Z,1008.92
2018-08-12T12:21:25.865Z,1008.87
2018-08-12T12:22:25.538Z,1009.12
2018-08-12T12:23:25.495Z,1009.01
2018-08-12T12:24:25.596Z,1008.89
2018-08-12T12:25:25.490Z,1008.87
2018-08-12T12:26:25.489Z,1008.96
2018-08-12T12:27:25.634Z,1008.90
2018-08-12T12:28:25.798Z,1008.82
2018-08-12T12:29:25.487Z,1008.79
2018-08-12T12:30:25.476Z,1008.74
2018-08-12T12:31:25.468Z,1008.76
2018-08-12T12:32:25.457Z,1008.79
2018-08-12T12:33:25.656Z,1008.74
2018-08-12T12:34:26.962Z,1008.67
2018-08-12T12:35:25.799Z,1008.73
2018-08-12T12:36:25.443Z,1008.68
2018-08-12T12:37:25.443Z,1008.72
2018-08-12T12:38:25.531Z,1008.71
2018-08-12T12:39:25.579Z,1008.66
2018-08-12T12:40:25.420Z,1008.71
2018-08-12T12:41:25.776Z,1008.73
2018-08-12T12:42:25.488Z,1008.69
2018-08-12T12:43:25.427Z,1008.73
2018-08-12T12:44:25.398Z,1008.77
2018-08-12T12:45:25.438Z,1008.76
2018-08-12T12:46:25.389Z,1008.88
2018-08-12T12:47:25.681Z,1008.79
2018-08-12T12:48:25.399Z,1008.61
2018-08-12T12:49:25.415Z,1008.69
2018-08-12T12:50:26.120Z,1008.70
2018-08-12T12:51:25.413Z,1008.62
2018-08-12T12:52:25.359Z,1008.66
2018-08-12T12:53:25.754Z,1008.72
2018-08-12T12:54:25.395Z,1008.63
2018-08-12T12:55:25.331Z,1008.62
2018-08-12T12:56:25.410Z,1008.61
2018-08-12T12:57:25.368Z,1008.62
2018-08-12T12:58:25.322Z,1008.61
2018-08-12T12:59:25.609Z,1008.61
2018-08-12T13:00:25.309Z,1008.57
2018-08-12T13:01:25.293Z,1008.57
2018-08-12T13:02:25.294Z,1008.52
2018-08-12T13:03:25.367Z,1008.49
2018-08-12T13:04:25.291Z,1008.60
2018-08-12T13:05:25.578Z,1008.44
2018-08-12T13:06:25.279Z,1008.49
2018-08-12T13:07:25.261Z,1008.42
2018-08-12T13:08:25.244Z,1008.43
2018-08-12T13:09:25.288Z,1008.37
2018-08-12T13:10:25.238Z,1008.39
2018-08-12T13:11:25.527Z,1008.45
2018-08-12T13:12:25.293Z,1008.38
2018-08-12T13:14:25.220Z,1008.42
2018-08-12T13:15:25.305Z,1008.33
2018-08-12T13:16:25.196Z,1008.28
2018-08-12T13:17:25.686Z,1008.32
2018-08-12T13:18:25.184Z,1008.29
2018-08-12T13:19:25.166Z,1008.32
2018-08-12T13:20:25.161Z,1008.31
2018-08-12T13:21:25.357Z,1008.33
2018-08-12T13:22:25.159Z,1008.30
2018-08-12T13:26:25.437Z,1008.41
2018-08-12T13:27:25.168Z,1008.35
2018-08-12T13:28:25.153Z,1008.33
2018-08-12T13:29:25.109Z,1008.41
2018-08-12T13:30:25.100Z,1008.39
2018-08-12T13:31:25.111Z,1008.36
2018-08-12T13:32:25.080Z,1008.34
2018-08-12T13:33:26.630Z,1008.43
2018-08-12T13:34:25.075Z,1008.47
2018-08-12T13:35:25.161Z,1008.28
2018-08-12T13:36:25.078Z,1008.30
2018-08-12T13:37:25.048Z,1008.36
2018-08-12T13:39:25.094Z,1008.42
2018-08-12T13:40:25.341Z,1008.55
2018-08-12T13:42:25.036Z,1008.39
2018-08-12T13:43:25.071Z,1008.29
2018-08-12T13:44:25.088Z,1008.21
2018-08-12T13:45:25.067Z,1008.21
2018-08-12T13:46:25.071Z,1008.19
2018-08-12T13:49:25.314Z,1008.14
2018-08-12T13:50:25.060Z,1008.08
2018-08-12T13:54:24.979Z,1008.15
2018-08-12T13:56:25.299Z,1008.08
2018-08-12T13:57:27.107Z,1008.00
2018-08-12T13:58:24.950Z,1008.03
2018-08-12T13:59:24.942Z,1008.00
2018-08-12T14:01:25.043Z,1008.17
2018-08-12T14:02:24.952Z,1007.99
2018-08-12T14:03:25.280Z,1007.87
2018-08-12T14:05:24.934Z,1007.75
2018-08-12T14:06:24.979Z,1007.81
2018-08-12T14:07:24.904Z,1007.75
2018-08-12T14:08:24.904Z,1007.77
2018-08-12T14:12:24.887Z,1008.08
2018-08-12T14:13:24.889Z,1007.98
2018-08-12T14:15:25.016Z,1007.94
2018-08-12T14:17:25.165Z,1008.00
2018-08-12T14:18:25.344Z,1007.61
2018-08-12T14:19:25.067Z,1007.57
2018-08-12T14:20:24.838Z,1007.96
2018-08-12T14:21:24.983Z,1008.06
2018-08-12T14:22:24.843Z,1007.85
2018-08-12T14:24:25.125Z,1007.90
2018-08-12T14:25:24.840Z,1007.86